Time;durP1;ratioP1;P1;durP2;ratioP2;P2;SDS_P1;SDS_P2;PMS_P1;PMS_P2;Temp;Humidity;BMP_temperature;BMP_pressure;BME280_temperature;BME280_humidity;BME280_pressure;Samples;Min_cycle;Max_cycle;Signal;HPM_P1;HPM_P2
2023/10/14 00:01:35;;;;;;;9.40;4.70;;;22.20;59.20;;;;;;5114055;27;20593;-77
2023/10/14 00:04:07;;;;;;;10.97;4.93;;;22.20;59.30;;;;;;5109180;27;20977;-76
2023/10/14 00:06:38;;;;;;;10.33;4.50;;;22.20;59.50;;;;;;5107780;27;20455;-76
2023/10/14 00:09:11;;;;;;;10.73;4.47;;;22.20;59.60;;;;;;5110809;27;20463;-77
2023/10/14 00:11:43;;;;;;;12.80;4.90;;;22.20;59.80;;;;;;5109026;28;20463;-77
2023/10/14 00:14:18;;;;;;;11.50;5.40;;;22.20;60.00;;;;;;5109691;27;20962;-75
2023/10/14 00:16:51;;;;;;;12.00;4.50;;;22.10;60.20;;;;;;5108218;27;20534;-77
2023/10/14 00:19:22;;;;;;;12.17;5.20;;;22.10;60.30;;;;;;5109982;27;20499;-78
2023/10/14 00:21:51;;;;;;;15.70;5.30;;;22.10;60.40;;;;;;5113743;27;20456;-75
2023/10/14 00:24:26;;;;;;;11.50;5.43;;;22.10;60.60;;;;;;5116472;27;20481;-78
2023/10/14 00:26:55;;;;;;;15.50;5.43;;;22.10;60.90;;;;;;5110090;27;20451;-77
2023/10/14 00:29:25;;;;;;;15.70;6.13;;;22.10;60.90;;;;;;5112982;27;20512;-76
2023/10/14 00:31:53;;;;;;;13.30;5.17;;;22.10;61.10;;;;;;5108080;27;20591;-76
2023/10/14 00:34:22;;;;;;;12.00;5.80;;;22.10;61.10;;;;;;5112984;27;20460;-76
2023/10/14 00:36:53;;;;;;;13.20;5.50;;;22.10;61.20;;;;;;5113487;27;20952;-76
2023/10/14 00:39:26;;;;;;;11.47;4.87;;;22.10;61.30;;;;;;5116819;27;20551;-76
2023/10/14 00:41:58;;;;;;;8.70;4.67;;;22.10;61.30;;;;;;5113015;27;20460;-77
2023/10/14 00:44:27;;;;;;;10.60;4.63;;;22.10;61.30;;;;;;5110385;27;20456;-76
2023/10/14 00:46:56;;;;;;;11.40;5.67;;;22.00;61.30;;;;;;5107106;27;20455;-80
2023/10/14 00:49:30;;;;;;;11.70;4.77;;;22.00;61.30;;;;;;5118553;27;20496;-78
2023/10/14 00:52:00;;;;;;;11.77;5.47;;;22.00;61.30;;;;;;5111769;27;20451;-78
2023/10/14 00:54:41;;;;;;;11.37;4.03;;;22.00;61.30;;;;;;5124729;27;20461;-78
2023/10/14 00:57:20;;;;;;;11.83;4.97;;;22.00;61.30;;;;;;5111665;27;20542;-77
2023/10/14 00:59:51;;;;;;;10.67;5.10;;;22.00;61.30;;;;;;5108107;27;21043;-77
2023/10/14 01:02:26;;;;;;;11.07;5.17;;;22.00;61.30;;;;;;5112856;27;20467;-77
2023/10/14 01:04:54;;;;;;;11.77;4.93;;;22.00;61.30;;;;;;5114559;27;20897;-78
2023/10/14 01:07:23;;;;;;;14.40;5.17;;;21.90;61.30;;;;;;5111555;27;20454;-78
2023/10/14 01:09:52;;;;;;;11.77;5.20;;;21.90;61.30;;;;;;5115186;27;20508;-80
2023/10/14 01:12:26;;;;;;;12.73;4.87;;;21.90;61.40;;;;;;5115120;27;20549;-81
2023/10/14 01:14:59;;;;;;;12.17;4.97;;;21.90;61.40;;;;;;5107630;27;20553;-81
2023/10/14 01:17:29;;;;;;;9.13;4.87;;;21.90;61.40;;;;;;5117797;27;20459;-79
2023/10/14 01:20:06;;;;;;;11.70;5.10;;;21.90;61.50;;;;;;5110927;27;21220;-81
2023/10/14 01:22:37;;;;;;;12.33;6.17;;;21.90;61.50;;;;;;5111900;27;20439;-79
2023/10/14 01:25:11;;;;;;;12.80;5.33;;;21.90;61.50;;;;;;5108419;27;20820;-77
2023/10/14 01:27:45;;;;;;;15.20;5.70;;;21.90;61.50;;;;;;5109073;27;20466;-78
2023/10/14 01:30:18;;;;;;;13.80;5.03;;;21.90;61.60;;;;;;5112705;27;20455;-78
2023/10/14 01:32:49;;;;;;;10.47;5.00;;;21.80;61.70;;;;;;5085975;28;20457;-77
2023/10/14 01:35:24;;;;;;;11.67;5.77;;;21.80;61.70;;;;;;5102104;28;20535;-77
2023/10/14 01:37:55;;;;;;;13.73;5.20;;;21.80;61.80;;;;;;5091136;28;20458;-77
2023/10/14 01:40:31;;;;;;;19.83;6.47;;;21.80;61.90;;;;;;5108504;28;20476;-79
2023/10/14 01:43:06;;;;;;;9.10;5.30;;;21.80;61.90;;;;;;5098874;28;20472;-77
2023/10/14 01:45:48;;;;;;;14.50;5.20;;;21.80;62.00;;;;;;5103966;28;21230;-78
2023/10/14 01:48:20;;;;;;;9.90;5.00;;;21.80;62.10;;;;;;5104700;28;21039;-78
2023/10/14 01:50:54;;;;;;;15.17;6.10;;;21.80;62.20;;;;;;5081863;28;20543;-77
2023/10/14 01:53:28;;;;;;;11.37;5.83;;;21.80;62.40;;;;;;5077985;28;20455;-77
2023/10/14 01:55:58;;;;;;;13.50;5.10;;;21.80;62.60;;;;;;5102517;28;20484;-77
2023/10/14 01:58:32;;;;;;;12.63;6.00;;;21.80;62.70;;;;;;5088198;28;20460;-76
2023/10/14 02:01:11;;;;;;;13.03;5.47;;;21.80;62.80;;;;;;5110973;27;20463;-77
2023/10/14 02:03:43;;;;;;;13.90;6.23;;;21.80;62.90;;;;;;5110280;27;20483;-77
2023/10/14 02:06:16;;;;;;;19.00;6.40;;;21.80;63.00;;;;;;5126582;27;20582;-77
2023/10/14 02:08:47;;;;;;;12.47;5.50;;;21.80;63.10;;;;;;5108146;27;20452;-79
2023/10/14 02:11:20;;;;;;;14.00;5.93;;;21.80;63.20;;;;;;5130665;27;20500;-78
2023/10/14 02:13:50;;;;;;;18.70;7.10;;;21.80;63.30;;;;;;5114054;27;20466;-78
2023/10/14 02:16:23;;;;;;;14.73;5.97;;;21.90;63.40;;;;;;5120124;27;20967;-78
2023/10/14 02:19:00;;;;;;;16.43;6.00;;;21.90;63.40;;;;;;5116490;27;20459;-78
2023/10/14 02:21:33;;;;;;;23.83;7.17;;;21.90;63.60;;;;;;5126844;27;20821;-77
2023/10/14 02:24:04;;;;;;;18.53;7.20;;;21.90;63.70;;;;;;5128670;27;20465;-79
2023/10/14 02:26:33;;;;;;;22.17;6.80;;;21.90;64.00;;;;;;5127498;27;20506;-77
2023/10/14 02:29:06;;;;;;;14.87;6.53;;;21.90;64.20;;;;;;5106449;27;20542;-78
2023/10/14 02:31:36;;;;;;;17.10;7.20;;;21.90;64.20;;;;;;5095429;28;20494;-78
2023/10/14 02:34:07;;;;;;;15.37;7.50;;;21.90;64.30;;;;;;5107968;27;21032;-79
2023/10/14 02:36:41;;;;;;;23.13;7.27;;;22.00;64.40;;;;;;5085415;28;20970;-79
2023/10/14 02:39:14;;;;;;;16.50;7.23;;;22.00;64.50;;;;;;5109446;27;20471;-77
2023/10/14 02:41:45;;;;;;;20.37;7.43;;;22.00;64.60;;;;;;5089448;28;20472;-78
2023/10/14 02:44:27;;;;;;;17.70;7.10;;;22.00;64.60;;;;;;5105150;27;20463;-78
2023/10/14 02:47:01;;;;;;;15.03;7.13;;;22.00;64.70;;;;;;5111811;27;20470;-78
2023/10/14 02:49:35;;;;;;;13.17;6.93;;;22.00;64.70;;;;;;5113533;27;20498;-78
2023/10/14 02:52:08;;;;;;;15.20;7.33;;;22.00;64.70;;;;;;5091486;28;20474;-78
2023/10/14 02:54:43;;;;;;;20.03;7.10;;;22.10;64.80;;;;;;5108560;27;20980;-76
2023/10/14 02:57:14;;;;;;;14.20;7.27;;;22.10;64.80;;;;;;5112764;28;20455;-78
2023/10/14 02:59:48;;;;;;;20.67;7.80;;;22.10;64.80;;;;;;5108236;28;20516;-78
2023/10/14 03:02:24;;;;;;;19.63;8.00;;;22.10;64.80;;;;;;5087138;28;21078;-76
2023/10/14 03:05:09;;;;;;;18.93;7.50;;;22.10;64.80;;;;;;5104507;27;20458;-76
2023/10/14 03:07:50;;;;;;;19.40;7.17;;;22.10;64.90;;;;;;5107238;28;20459;-78
2023/10/14 03:10:28;;;;;;;15.27;7.43;;;22.00;64.90;;;;;;5091632;28;20559;-79
2023/10/14 03:12:57;;;;;;;15.73;7.20;;;22.00;65.10;;;;;;5107914;28;20961;-77
2023/10/14 03:15:30;;;;;;;21.17;8.40;;;22.00;65.10;;;;;;5086395;28;20563;-77
2023/10/14 03:18:01;;;;;;;15.60;7.80;;;22.00;65.10;;;;;;5093150;28;20456;-77
2023/10/14 03:20:39;;;;;;;17.20;6.90;;;22.00;65.20;;;;;;5105630;28;20548;-77
2023/10/14 03:23:11;;;;;;;18.77;7.07;;;22.00;65.20;;;;;;5111682;28;20482;-75
2023/10/14 03:25:41;;;;;;;18.37;6.93;;;22.00;65.30;;;;;;5090040;28;20486;-78
2023/10/14 03:28:14;;;;;;;22.70;8.30;;;22.00;65.30;;;;;;5111304;27;20949;-77
2023/10/14 03:30:47;;;;;;;30.10;8.17;;;22.00;65.30;;;;;;5111404;27;20499;-77
2023/10/14 03:33:19;;;;;;;16.53;7.90;;;22.00;65.40;;;;;;5111302;27;20459;-78
2023/10/14 03:35:57;;;;;;;17.40;7.17;;;22.00;65.40;;;;;;5119177;27;20882;-78
2023/10/14 03:38:39;;;;;;;15.03;6.73;;;22.00;65.50;;;;;;5114795;27;20447;-78
2023/10/14 03:41:18;;;;;;;16.33;6.60;;;22.00;65.50;;;;;;5112865;27;20489;-76
2023/10/14 03:43:54;;;;;;;18.07;7.37;;;22.00;65.50;;;;;;5113279;27;20452;-78
2023/10/14 03:46:32;;;;;;;21.87;7.40;;;21.90;65.50;;;;;;5114722;27;20447;-78
2023/10/14 03:49:06;;;;;;;18.53;7.13;;;21.90;65.50;;;;;;5112141;28;20467;-78
2023/10/14 03:51:37;;;;;;;17.20;7.43;;;21.90;65.60;;;;;;5112279;27;20486;-77
2023/10/14 03:54:08;;;;;;;15.67;6.83;;;21.90;65.60;;;;;;5110069;27;20505;-77
2023/10/14 03:56:43;;;;;;;18.23;7.40;;;21.90;65.60;;;;;;5107317;27;20543;-78
2023/10/14 03:59:13;;;;;;;12.37;6.77;;;21.90;65.70;;;;;;5110597;28;20447;-78
2023/10/14 04:01:44;;;;;;;16.57;6.77;;;21.90;65.70;;;;;;5109754;27;20467;-77
2023/10/14 04:04:17;;;;;;;16.13;7.33;;;21.80;65.80;;;;;;5114088;27;20459;-80
2023/10/14 04:07:12;;;;;;;20.60;6.90;;;21.80;65.80;;;;;;5113379;27;20542;-78
2023/10/14 04:09:39;;;;;;;17.67;7.43;;;21.80;65.90;;;;;;5109946;27;20462;-77
2023/10/14 04:12:12;;;;;;;16.47;7.77;;;21.80;66.00;;;;;;5112274;27;20479;-78
2023/10/14 04:14:41;;;;;;;15.20;6.70;;;21.80;66.00;;;;;;5111278;27;20452;-79
2023/10/14 04:17:18;;;;;;;17.53;7.50;;;21.80;66.10;;;;;;5107813;28;20517;-78
2023/10/14 04:19:53;;;;;;;16.03;6.97;;;21.80;66.20;;;;;;5110415;27;20972;-78
2023/10/14 04:22:32;;;;;;;18.27;7.10;;;21.80;66.20;;;;;;5109879;28;20508;-78
2023/10/14 04:25:19;;;;;;;18.00;7.47;;;21.80;66.20;;;;;;5115611;27;20443;-77
2023/10/14 04:30:39;;;;;;;19.20;8.77;;;21.70;66.30;;;;;;5110438;27;20471;-78
2023/10/14 04:33:18;;;;;;;22.23;7.67;;;21.80;66.30;;;;;;5108490;27;20625;-77
2023/10/14 04:35:59;;;;;;;17.13;6.87;;;21.80;66.30;;;;;;5112026;27;21050;-77
2023/10/14 04:38:38;;;;;;;16.37;7.20;;;21.80;66.40;;;;;;5116763;27;20969;-78
2023/10/14 04:41:12;;;;;;;16.70;6.73;;;21.80;66.40;;;;;;5114196;27;20521;-77
2023/10/14 04:44:00;;;;;;;19.40;6.80;;;21.80;66.40;;;;;;5108726;27;20505;-77
2023/10/14 04:46:45;;;;;;;14.67;6.70;;;21.80;66.50;;;;;;5111393;27;20551;-77
2023/10/14 04:49:17;;;;;;;14.93;7.23;;;21.80;66.50;;;;;;5110237;28;20456;-77
2023/10/14 04:51:48;;;;;;;13.40;6.63;;;21.80;66.60;;;;;;5108968;28;20493;-77
2023/10/14 04:54:19;;;;;;;18.30;6.93;;;21.80;66.60;;;;;;5108700;28;20456;-77
2023/10/14 04:56:48;;;;;;;13.67;6.73;;;21.80;66.60;;;;;;5108824;27;20543;-77
2023/10/14 04:59:24;;;;;;;12.17;6.23;;;21.70;66.70;;;;;;5112266;27;20464;-77
2023/10/14 05:01:55;;;;;;;19.90;6.57;;;21.70;66.70;;;;;;5109769;27;20808;-79
2023/10/14 05:04:29;;;;;;;12.93;6.80;;;21.70;66.80;;;;;;5109026;28;20439;-77
2023/10/14 05:07:03;;;;;;;17.73;7.10;;;21.70;66.80;;;;;;5117519;27;20943;-77
2023/10/14 05:09:39;;;;;;;9.47;5.23;;;21.70;66.80;;;;;;5107291;27;20563;-77
2023/10/14 05:12:08;;;;;;;14.30;6.83;;;21.70;66.90;;;;;;5110152;27;20472;-77
2023/10/14 05:14:37;;;;;;;12.20;6.10;;;21.60;66.90;;;;;;5104282;27;20559;-75
2023/10/14 05:17:14;;;;;;;20.00;6.17;;;21.60;67.00;;;;;;5106887;28;20464;-77
2023/10/14 05:19:43;;;;;;;16.27;5.93;;;21.60;67.20;;;;;;5106829;27;21053;-75
2023/10/14 05:22:18;;;;;;;14.73;5.63;;;21.60;67.20;;;;;;5106296;27;21266;-78
2023/10/14 05:24:52;;;;;;;14.37;5.30;;;21.50;67.30;;;;;;5108487;27;20505;-77
2023/10/14 05:27:21;;;;;;;16.53;5.50;;;21.50;67.50;;;;;;5110669;27;20460;-78
2023/10/14 05:29:51;;;;;;;11.03;5.83;;;21.40;67.50;;;;;;5109269;27;20467;-79
2023/10/14 05:32:26;;;;;;;16.03;5.67;;;21.40;67.70;;;;;;5114308;27;20463;-77
2023/10/14 05:34:54;;;;;;;11.27;4.73;;;21.40;67.80;;;;;;5102698;27;20467;-78
2023/10/14 05:37:23;;;;;;;13.87;5.47;;;21.40;67.90;;;;;;5113214;27;20457;-79
2023/10/14 05:39:54;;;;;;;11.00;5.93;;;21.30;67.90;;;;;;5108417;28;20839;-77
2023/10/14 05:42:24;;;;;;;11.10;5.37;;;21.30;68.10;;;;;;5113742;27;20500;-77
2023/10/14 05:44:57;;;;;;;10.53;5.30;;;21.30;68.10;;;;;;5110340;27;20460;-77
2023/10/14 05:47:27;;;;;;;10.13;4.83;;;21.30;68.20;;;;;;5111205;27;20886;-78
2023/10/14 05:49:55;;;;;;;16.50;5.60;;;21.30;68.20;;;;;;5112524;27;20435;-77
2023/10/14 05:52:25;;;;;;;12.10;4.93;;;21.20;68.30;;;;;;5107531;27;20444;-77
2023/10/14 05:54:53;;;;;;;11.03;4.40;;;21.20;68.30;;;;;;5111739;27;21231;-77
2023/10/14 05:57:22;;;;;;;13.33;4.60;;;21.20;68.50;;;;;;5110312;27;20509;-77
2023/10/14 05:59:50;;;;;;;8.80;4.47;;;21.10;68.60;;;;;;5108838;27;20477;-77
2023/10/14 06:02:20;;;;;;;11.67;4.20;;;21.10;68.70;;;;;;5105593;27;21015;-77
2023/10/14 06:04:50;;;;;;;11.13;4.40;;;21.10;68.80;;;;;;5108364;27;20448;-77
2023/10/14 06:07:19;;;;;;;11.40;4.43;;;21.10;68.80;;;;;;5109917;27;20476;-76
2023/10/14 06:09:47;;;;;;;10.80;3.40;;;21.10;69.00;;;;;;5106057;27;20462;-77
2023/10/14 06:12:16;;;;;;;10.23;4.10;;;21.00;69.00;;;;;;5108577;27;20459;-76
2023/10/14 06:14:46;;;;;;;10.87;3.73;;;21.00;69.10;;;;;;5106981;27;22699;-77
2023/10/14 06:17:15;;;;;;;14.40;3.53;;;21.00;69.10;;;;;;5109517;27;20473;-77
2023/10/14 06:19:45;;;;;;;11.47;3.37;;;21.00;69.20;;;;;;5109359;27;20451;-79
2023/10/14 06:22:14;;;;;;;10.60;3.63;;;21.00;69.20;;;;;;5108595;27;20513;-77
2023/10/14 06:24:43;;;;;;;7.57;2.97;;;21.00;69.20;;;;;;5111252;27;20448;-77
2023/10/14 06:27:20;;;;;;;8.20;2.70;;;21.00;69.30;;;;;;5110119;27;20456;-77
2023/10/14 06:29:50;;;;;;;8.90;2.80;;;21.00;69.40;;;;;;5110262;27;20874;-76
2023/10/14 06:32:19;;;;;;;10.57;2.80;;;20.90;69.60;;;;;;5107751;27;20479;-77
2023/10/14 06:34:57;;;;;;;8.27;2.67;;;20.90;69.60;;;;;;5108193;27;20447;-77
2023/10/14 06:37:27;;;;;;;9.43;2.80;;;20.90;69.80;;;;;;5107924;27;20457;-78
2023/10/14 06:39:56;;;;;;;6.20;2.43;;;20.90;70.00;;;;;;5105780;28;20452;-76
2023/10/14 06:42:26;;;;;;;7.37;3.00;;;20.90;70.00;;;;;;5107468;27;20578;-78
2023/10/14 06:44:55;;;;;;;8.80;2.97;;;20.90;70.10;;;;;;5109919;27;20471;-76
2023/10/14 06:47:23;;;;;;;10.03;3.30;;;20.90;70.50;;;;;;5108665;27;20447;-77
2023/10/14 06:49:54;;;;;;;7.97;2.57;;;20.80;70.70;;;;;;5107410;27;20448;-78
2023/10/14 06:52:22;;;;;;;9.90;3.00;;;20.80;70.80;;;;;;5108581;27;20458;-77
2023/10/14 06:54:53;;;;;;;9.80;2.90;;;20.80;70.90;;;;;;5110669;27;21038;-76
2023/10/14 06:57:23;;;;;;;8.17;3.00;;;20.80;71.10;;;;;;5110792;27;20460;-78
2023/10/14 06:59:51;;;;;;;9.20;2.80;;;20.80;71.10;;;;;;5110373;27;20483;-78
2023/10/14 07:02:21;;;;;;;8.80;3.00;;;20.80;71.20;;;;;;5125253;27;20466;-77
2023/10/14 07:04:50;;;;;;;9.73;3.10;;;20.80;71.20;;;;;;5123016;27;20512;-78
2023/10/14 07:07:19;;;;;;;8.70;2.97;;;20.80;71.10;;;;;;5127115;27;20447;-76
2023/10/14 07:09:48;;;;;;;11.47;3.43;;;20.90;71.20;;;;;;5126881;27;20477;-77
2023/10/14 07:12:18;;;;;;;13.93;3.30;;;20.90;71.40;;;;;;5124636;27;20798;-79
2023/10/14 07:14:47;;;;;;;11.70;3.13;;;20.80;71.70;;;;;;5105659;28;20459;-77
2023/10/14 07:17:22;;;;;;;8.63;2.20;;;20.80;72.30;;;;;;5108926;28;20477;-79
2023/10/14 07:19:50;;;;;;;4.70;1.43;;;20.60;72.40;;;;;;5108702;28;20550;-78
2023/10/14 07:22:21;;;;;;;5.30;1.27;;;20.50;72.60;;;;;;5107600;28;20470;-77
2023/10/14 07:24:52;;;;;;;6.97;1.43;;;20.20;73.00;;;;;;5106794;28;20464;-77
2023/10/14 07:27:20;;;;;;;7.57;1.20;;;20.00;73.20;;;;;;5105286;28;20458;-78
2023/10/14 07:29:49;;;;;;;5.47;0.87;;;19.90;73.60;;;;;;5108839;28;20459;-77
2023/10/14 07:32:19;;;;;;;3.90;1.00;;;19.70;73.70;;;;;;5090695;28;20588;-79
2023/10/14 07:34:50;;;;;;;4.33;0.70;;;19.70;74.00;;;;;;5088061;28;20493;-78
2023/10/14 07:37:20;;;;;;;4.77;0.80;;;19.70;74.10;;;;;;5086585;28;20493;-78
2023/10/14 07:39:52;;;;;;;3.83;0.63;;;19.60;74.20;;;;;;5090384;28;21236;-77
2023/10/14 07:42:21;;;;;;;3.90;0.60;;;19.60;74.30;;;;;;5089536;28;20457;-77
2023/10/14 07:44:52;;;;;;;3.27;0.60;;;19.50;74.40;;;;;;5078333;28;20491;-78
2023/10/14 07:47:21;;;;;;;3.60;0.70;;;19.50;74.40;;;;;;5084563;28;20547;-77
2023/10/14 07:49:50;;;;;;;4.23;0.60;;;19.40;74.50;;;;;;5090550;28;21061;-77
2023/10/14 07:52:21;;;;;;;3.00;0.40;;;19.30;74.60;;;;;;5087597;28;20470;-76
2023/10/14 07:54:51;;;;;;;3.43;0.53;;;19.20;74.80;;;;;;5085582;28;21241;-74
2023/10/14 07:57:19;;;;;;;7.23;1.00;;;19.10;74.80;;;;;;5089197;28;20459;-78
2023/10/14 07:59:50;;;;;;;3.30;0.63;;;19.00;75.00;;;;;;5086350;28;20456;-78
2023/10/14 08:02:19;;;;;;;5.23;0.50;;;19.00;75.10;;;;;;5084998;28;20985;-78
2023/10/14 08:04:53;;;;;;;3.20;0.40;;;19.00;75.30;;;;;;5082086;28;20491;-78
2023/10/14 08:07:22;;;;;;;3.70;0.50;;;19.00;75.30;;;;;;5085283;28;20494;-77
2023/10/14 08:09:50;;;;;;;3.60;0.60;;;19.00;75.40;;;;;;5079257;28;20552;-80
2023/10/14 08:12:23;;;;;;;3.20;0.60;;;18.90;75.50;;;;;;5082393;28;20871;-79
2023/10/14 08:14:54;;;;;;;3.50;0.50;;;19.00;75.70;;;;;;5080398;28;20454;-76
2023/10/14 08:17:23;;;;;;;3.10;0.50;;;19.00;75.70;;;;;;5083398;28;20556;-79
2023/10/14 08:19:51;;;;;;;3.20;0.60;;;19.10;75.80;;;;;;5087153;28;20461;-77
2023/10/14 08:22:20;;;;;;;3.83;0.70;;;19.10;75.90;;;;;;5086189;28;20470;-79
2023/10/14 08:24:52;;;;;;;3.20;0.50;;;19.20;75.90;;;;;;5086260;28;20862;-79
2023/10/14 08:27:22;;;;;;;6.33;0.67;;;19.30;75.90;;;;;;5086418;28;20469;-78
2023/10/14 08:29:53;;;;;;;3.20;0.57;;;19.30;75.90;;;;;;5083305;28;20468;-77
2023/10/14 08:32:23;;;;;;;3.10;0.40;;;19.40;76.00;;;;;;5107817;28;20474;-80
2023/10/14 08:34:51;;;;;;;4.90;0.50;;;19.40;76.10;;;;;;5111057;27;20811;-81
2023/10/14 08:37:21;;;;;;;3.60;0.60;;;19.40;76.20;;;;;;5108807;28;20451;-80
2023/10/14 08:39:49;;;;;;;3.00;0.40;;;19.40;76.30;;;;;;5112455;27;20455;-80
2023/10/14 08:42:18;;;;;;;3.20;0.40;;;19.40;76.40;;;;;;5109828;27;20456;-79
2023/10/14 08:44:49;;;;;;;3.87;0.50;;;19.40;76.50;;;;;;5108467;27;20529;-79
2023/10/14 08:47:18;;;;;;;3.40;0.50;;;19.50;76.50;;;;;;5109574;27;20456;-79
2023/10/14 08:49:47;;;;;;;4.50;0.60;;;19.50;76.50;;;;;;5091200;28;20456;-79
2023/10/14 08:52:18;;;;;;;3.50;0.50;;;19.50;76.50;;;;;;5108138;27;20891;-77
2023/10/14 08:54:48;;;;;;;3.37;0.40;;;19.60;76.40;;;;;;5114740;27;20458;-77
2023/10/14 08:57:24;;;;;;;3.40;0.47;;;19.50;76.40;;;;;;5108652;28;20536;-77
2023/10/14 08:59:52;;;;;;;3.30;0.63;;;19.50;76.60;;;;;;5112964;27;20479;-79
2023/10/14 09:02:22;;;;;;;3.10;0.50;;;19.50;76.50;;;;;;5092076;28;20468;-78
2023/10/14 09:04:51;;;;;;;4.90;0.83;;;19.50;76.60;;;;;;5069606;28;20849;-80
2023/10/14 09:07:23;;;;;;;3.20;0.50;;;19.60;76.50;;;;;;5090571;28;20446;-77
2023/10/14 09:09:53;;;;;;;3.20;0.50;;;19.50;76.40;;;;;;5090786;28;20448;-78
2023/10/14 09:12:21;;;;;;;3.30;0.63;;;19.50;76.30;;;;;;5087503;28;20461;-76
2023/10/14 09:14:51;;;;;;;3.20;0.50;;;19.50;76.40;;;;;;5089899;28;20476;-80
2023/10/14 09:17:20;;;;;;;3.10;0.50;;;19.50;76.40;;;;;;5088827;28;20983;-78
2023/10/14 09:19:50;;;;;;;9.20;1.07;;;19.50;76.40;;;;;;5088333;28;20809;-78
2023/10/14 09:22:22;;;;;;;3.20;0.50;;;19.50;76.30;;;;;;5086181;28;20545;-78
2023/10/14 09:24:51;;;;;;;3.30;0.50;;;19.40;76.00;;;;;;5087579;28;20511;-77
2023/10/14 09:27:20;;;;;;;3.40;0.60;;;19.30;75.90;;;;;;5087065;28;20499;-77
2023/10/14 09:29:56;;;;;;;3.30;0.53;;;19.20;75.70;;;;;;5068198;28;20920;-78
2023/10/14 09:32:25;;;;;;;19.43;2.57;;;19.10;75.50;;;;;;5071929;28;21029;-79
2023/10/14 09:34:55;;;;;;;4.63;0.70;;;18.90;75.60;;;;;;5088996;28;20445;-80
2023/10/14 09:37:23;;;;;;;4.50;0.73;;;18.80;75.70;;;;;;5089224;28;20459;-79
2023/10/14 09:39:57;;;;;;;3.30;0.70;;;18.80;75.70;;;;;;5084627;28;20522;-78
2023/10/14 09:42:30;;;;;;;4.10;0.70;;;18.90;75.80;;;;;;5091190;28;20497;-76
2023/10/14 09:45:10;;;;;;;3.47;0.80;;;18.90;75.90;;;;;;5088289;28;20482;-78
2023/10/14 09:47:45;;;;;;;4.10;1.00;;;18.90;75.80;;;;;;5086912;28;20448;-79
2023/10/14 09:50:16;;;;;;;4.00;0.70;;;18.90;75.50;;;;;;5095511;28;20529;-78
2023/10/14 09:52:47;;;;;;;4.27;1.23;;;18.90;75.40;;;;;;5090563;28;20476;-82
2023/10/14 09:55:16;;;;;;;3.83;0.70;;;19.00;75.50;;;;;;5069990;28;20463;-80
2023/10/14 09:57:46;;;;;;;6.47;1.50;;;19.10;75.40;;;;;;5087988;28;20484;-78
2023/10/14 10:00:17;;;;;;;5.20;1.00;;;19.10;75.30;;;;;;5086815;28;20456;-77
2023/10/14 10:02:48;;;;;;;6.93;1.30;;;19.20;75.00;;;;;;5080339;28;20807;-80
2023/10/14 10:05:22;;;;;;;6.93;1.00;;;19.20;74.30;;;;;;5079028;28;22336;-79
2023/10/14 10:07:59;;;;;;;5.83;1.30;;;19.10;74.20;;;;;;5081612;28;20452;-76
2023/10/14 10:10:30;;;;;;;5.97;1.20;;;19.00;74.10;;;;;;5063006;28;21049;-76
2023/10/14 10:13:01;;;;;;;5.53;1.30;;;19.00;74.10;;;;;;5083392;28;20465;-77
2023/10/14 10:15:35;;;;;;;9.00;1.90;;;19.00;73.90;;;;;;5083149;28;20460;-77
2023/10/14 10:18:05;;;;;;;5.17;1.53;;;19.00;73.70;;;;;;5069552;28;20460;-78
2023/10/14 10:20:36;;;;;;;7.13;2.17;;;19.10;73.30;;;;;;5083787;28;20483;-78
2023/10/14 10:23:09;;;;;;;5.30;1.97;;;19.00;72.90;;;;;;5088552;28;20452;-78
2023/10/14 10:25:49;;;;;;;8.60;2.10;;;19.00;72.50;;;;;;5064307;28;20479;-82
2023/10/14 10:28:40;;;;;;;8.43;2.17;;;19.00;72.70;;;;;;5080197;28;20452;-81
2023/10/14 10:31:14;;;;;;;6.00;1.63;;;19.00;72.50;;;;;;5082226;28;20469;-79
2023/10/14 10:33:46;;;;;;;8.20;2.23;;;19.00;72.10;;;;;;5084385;28;20459;-78
2023/10/14 10:36:21;;;;;;;11.50;2.23;;;18.90;71.70;;;;;;5082273;28;20540;-79
2023/10/14 10:38:53;;;;;;;5.67;2.20;;;18.90;71.80;;;;;;5075318;28;20460;-79
2023/10/14 10:41:27;;;;;;;10.17;1.97;;;18.80;71.40;;;;;;5078013;28;20448;-80
2023/10/14 10:44:02;;;;;;;8.47;2.10;;;18.60;71.20;;;;;;5060556;28;20457;-80
2023/10/14 10:46:37;;;;;;;12.43;1.87;;;18.50;71.10;;;;;;5061942;28;20533;-77
2023/10/14 10:49:07;;;;;;;10.07;2.60;;;18.40;70.90;;;;;;5079088;28;20453;-79
2023/10/14 10:51:35;;;;;;;7.07;2.00;;;18.20;71.00;;;;;;5076541;28;20481;-79
2023/10/14 10:54:04;;;;;;;7.30;2.10;;;18.20;71.10;;;;;;5083329;28;20540;-77
2023/10/14 10:56:34;;;;;;;6.97;2.40;;;18.20;71.20;;;;;;5062347;28;20928;-78
2023/10/14 10:59:04;;;;;;;8.80;2.33;;;18.20;71.10;;;;;;5083504;28;20839;-79
2023/10/14 11:01:34;;;;;;;8.97;2.40;;;18.20;70.90;;;;;;5067732;28;20481;-79
2023/10/14 11:04:08;;;;;;;10.67;2.47;;;18.10;70.60;;;;;;5081171;28;20446;-80
2023/10/14 11:06:36;;;;;;;10.47;2.80;;;18.10;70.60;;;;;;5079882;28;20535;-77
2023/10/14 11:09:05;;;;;;;9.50;2.30;;;18.20;70.40;;;;;;5079176;28;21059;-78
2023/10/14 11:11:36;;;;;;;12.07;2.80;;;18.10;70.20;;;;;;5081106;28;20561;-77
2023/10/14 11:14:15;;;;;;;10.23;2.77;;;18.20;70.40;;;;;;5079113;28;20457;-80
2023/10/14 11:16:49;;;;;;;13.23;2.80;;;18.30;70.20;;;;;;5079632;28;20536;-79
2023/10/14 11:19:20;;;;;;;8.00;2.70;;;18.40;70.10;;;;;;5081335;28;20962;-78
2023/10/14 11:21:49;;;;;;;11.27;2.97;;;18.40;70.00;;;;;;5062414;28;20448;-80
2023/10/14 11:24:18;;;;;;;8.20;2.60;;;18.50;70.00;;;;;;5084055;28;20484;-80
2023/10/14 11:26:47;;;;;;;9.80;2.40;;;18.50;69.90;;;;;;5064850;28;20979;-79
2023/10/14 11:29:15;;;;;;;8.47;2.80;;;18.60;69.90;;;;;;5081960;28;20441;-77
2023/10/14 11:31:45;;;;;;;13.50;2.93;;;18.50;69.70;;;;;;5096635;28;20486;-77
2023/10/14 11:34:13;;;;;;;8.03;2.50;;;18.50;69.50;;;;;;5106108;28;21211;-80
2023/10/14 11:36:42;;;;;;;15.13;2.67;;;18.50;69.40;;;;;;5106324;28;20448;-79
2023/10/14 11:39:13;;;;;;;10.77;2.50;;;18.30;69.10;;;;;;5082023;28;20448;-79
2023/10/14 11:41:42;;;;;;;10.93;2.57;;;18.30;68.90;;;;;;5107514;28;20959;-81
2023/10/14 11:44:10;;;;;;;7.97;2.40;;;18.30;68.90;;;;;;5112093;28;20456;-79
2023/10/14 11:46:41;;;;;;;8.27;2.50;;;18.20;68.80;;;;;;5103980;28;20479;-78
2023/10/14 11:49:11;;;;;;;7.47;2.50;;;18.10;68.50;;;;;;5108462;27;20463;-79
2023/10/14 11:51:41;;;;;;;10.63;2.93;;;18.00;68.40;;;;;;5096354;28;20451;-78
2023/10/14 11:54:11;;;;;;;12.50;3.17;;;18.00;68.40;;;;;;5107221;27;20554;-80
2023/10/14 11:56:40;;;;;;;10.60;2.60;;;18.00;68.50;;;;;;5111940;27;20461;-80
2023/10/14 11:59:08;;;;;;;8.03;2.33;;;18.00;68.70;;;;;;5111697;27;20467;-76
2023/10/14 12:01:36;;;;;;;8.43;2.70;;;18.00;68.60;;;;;;5100243;27;20472;-80
2023/10/14 12:04:05;;;;;;;7.93;2.40;;;18.00;68.70;;;;;;5091274;28;20544;-79
2023/10/14 12:06:35;;;;;;;8.40;1.80;;;18.10;68.40;;;;;;5091579;28;20910;-80
2023/10/14 12:09:05;;;;;;;11.47;2.70;;;18.10;68.20;;;;;;5094787;28;20447;-79
2023/10/14 12:11:41;;;;;;;10.77;3.10;;;18.20;68.30;;;;;;5096933;28;20529;-78
2023/10/14 12:14:11;;;;;;;9.90;2.90;;;18.30;68.30;;;;;;5093759;28;20444;-80
2023/10/14 12:16:41;;;;;;;7.77;2.40;;;18.40;68.00;;;;;;5073808;28;20799;-79
2023/10/14 12:19:11;;;;;;;12.60;2.70;;;18.40;67.90;;;;;;5073603;28;20464;-78
2023/10/14 12:21:43;;;;;;;10.83;3.10;;;18.40;67.80;;;;;;5087598;28;20483;-79
2023/10/14 12:24:11;;;;;;;8.37;2.67;;;18.40;67.70;;;;;;5088826;28;20978;-80
2023/10/14 12:26:43;;;;;;;11.83;2.67;;;18.40;67.50;;;;;;5094248;28;20487;-80
2023/10/14 12:29:12;;;;;;;12.20;2.80;;;18.30;66.90;;;;;;5091632;28;20461;-80
2023/10/14 12:31:44;;;;;;;15.90;3.30;;;18.20;66.90;;;;;;5089299;28;20481;-80
2023/10/14 12:34:14;;;;;;;8.53;2.27;;;18.10;66.60;;;;;;5090235;28;20464;-80
2023/10/14 12:36:45;;;;;;;6.60;2.00;;;18.10;66.40;;;;;;5092292;28;20456;-81
2023/10/14 12:39:26;;;;;;;9.20;2.60;;;18.10;65.80;;;;;;5091908;28;20449;-81
2023/10/14 12:42:01;;;;;;;11.90;2.70;;;18.10;65.80;;;;;;5092413;28;20466;-80
2023/10/14 12:44:29;;;;;;;11.77;3.20;;;18.00;65.40;;;;;;5092114;28;20527;-79
2023/10/14 12:46:58;;;;;;;9.67;2.70;;;18.00;65.50;;;;;;5092061;28;20512;-77
2023/10/14 12:49:27;;;;;;;8.77;2.40;;;17.90;65.20;;;;;;5090123;28;21002;-79
2023/10/14 12:52:05;;;;;;;10.03;2.67;;;17.90;65.40;;;;;;5097362;28;20448;-80
2023/10/14 12:54:34;;;;;;;13.00;2.60;;;18.00;65.30;;;;;;5095326;28;20456;-79
2023/10/14 12:57:04;;;;;;;7.10;1.93;;;17.90;65.30;;;;;;5094125;28;21116;-79
2023/10/14 12:59:32;;;;;;;13.50;2.90;;;18.00;65.10;;;;;;5086309;28;20475;-81
2023/10/14 13:02:00;;;;;;;14.17;2.33;;;18.00;64.50;;;;;;5088333;28;21049;-80
2023/10/14 13:04:28;;;;;;;9.00;2.27;;;17.90;64.30;;;;;;5085358;28;20454;-79
2023/10/14 13:06:58;;;;;;;7.20;2.20;;;17.90;63.60;;;;;;5093507;28;20492;-79